sensor_id;sensor_type;location;lat;lon;timestamp;P1;durP1;ratioP1;P2;durP2;ratioP2
26920;SDS011;14483;47.844;9.660;2023-01-15T00:01:28;2.38;;;0.93;;
26920;SDS011;14483;47.844;9.660;2023-01-15T00:03:57;3.80;;;0.90;;
26920;SDS011;14483;47.844;9.660;2023-01-15T00:06:24;1.85;;;1.00;;
26920;SDS011;14483;47.844;9.660;2023-01-15T00:08:51;1.88;;;0.60;;
26920;SDS011;14483;47.844;9.660;2023-01-15T00:11:17;5.28;;;1.55;;
26920;SDS011;14483;47.844;9.660;2023-01-15T00:13:44;3.53;;;1.10;;
26920;SDS011;14483;47.844;9.660;2023-01-15T00:16:11;5.97;;;0.82;;
26920;SDS011;14483;47.844;9.660;2023-01-15T00:18:38;2.33;;;1.00;;
26920;SDS011;14483;47.844;9.660;2023-01-15T00:21:06;2.92;;;1.30;;
26920;SDS011;14483;47.844;9.660;2023-01-15T00:23:33;1.88;;;0.82;;
26920;SDS011;14483;47.844;9.660;2023-01-15T00:26:18;1.73;;;0.63;;
26920;SDS011;14483;47.844;9.660;2023-01-15T00:29:02;1.45;;;0.50;;
26920;SDS011;14483;47.844;9.660;2023-01-15T00:31:28;2.40;;;0.65;;
26920;SDS011;14483;47.844;9.660;2023-01-15T00:33:55;4.28;;;1.25;;
26920;SDS011;14483;47.844;9.660;2023-01-15T00:36:23;8.02;;;2.70;;
26920;SDS011;14483;47.844;9.660;2023-01-15T00:38:49;3.83;;;1.20;;
26920;SDS011;14483;47.844;9.660;2023-01-15T00:41:16;5.80;;;0.90;;
26920;SDS011;14483;47.844;9.660;2023-01-15T00:43:42;3.03;;;1.42;;
26920;SDS011;14483;47.844;9.660;2023-01-15T00:46:09;10.30;;;2.90;;
26920;SDS011;14483;47.844;9.660;2023-01-15T00:48:35;3.55;;;1.30;;
26920;SDS011;14483;47.844;9.660;2023-01-15T00:51:02;4.95;;;2.10;;
26920;SDS011;14483;47.844;9.660;2023-01-15T00:53:30;2.03;;;0.88;;
26920;SDS011;14483;47.844;9.660;2023-01-15T00:55:56;1.90;;;0.73;;
26920;SDS011;14483;47.844;9.660;2023-01-15T00:58:23;1.05;;;0.50;;
26920;SDS011;14483;47.844;9.660;2023-01-15T01:00:51;2.42;;;0.43;;
26920;SDS011;14483;47.844;9.660;2023-01-15T01:03:17;1.85;;;0.55;;
26920;SDS011;14483;47.844;9.660;2023-01-15T01:05:44;1.48;;;0.43;;
26920;SDS011;14483;47.844;9.660;2023-01-15T01:08:10;1.38;;;0.30;;
26920;SDS011;14483;47.844;9.660;2023-01-15T01:10:39;1.70;;;0.55;;
26920;SDS011;14483;47.844;9.660;2023-01-15T01:13:05;0.80;;;0.40;;
26920;SDS011;14483;47.844;9.660;2023-01-15T01:15:32;3.35;;;0.30;;
26920;SDS011;14483;47.844;9.660;2023-01-15T01:17:58;1.02;;;0.20;;
26920;SDS011;14483;47.844;9.660;2023-01-15T01:20:24;0.60;;;0.22;;
26920;SDS011;14483;47.844;9.660;2023-01-15T01:22:51;1.05;;;0.40;;
26920;SDS011;14483;47.844;9.660;2023-01-15T01:25:18;0.47;;;0.28;;
26920;SDS011;14483;47.844;9.660;2023-01-15T01:27:46;1.33;;;0.38;;
26920;SDS011;14483;47.844;9.660;2023-01-15T01:30:13;0.30;;;0.20;;
26920;SDS011;14483;47.844;9.660;2023-01-15T01:32:40;0.70;;;0.30;;
26920;SDS011;14483;47.844;9.660;2023-01-15T01:35:09;0.57;;;0.20;;
26920;SDS011;14483;47.844;9.660;2023-01-15T01:37:35;0.80;;;0.38;;
26920;SDS011;14483;47.844;9.660;2023-01-15T01:40:02;1.67;;;0.30;;
26920;SDS011;14483;47.844;9.660;2023-01-15T01:42:28;2.42;;;0.47;;
26920;SDS011;14483;47.844;9.660;2023-01-15T01:44:59;0.93;;;0.30;;
26920;SDS011;14483;47.844;9.660;2023-01-15T01:47:26;0.63;;;0.25;;
26920;SDS011;14483;47.844;9.660;2023-01-15T01:49:53;1.13;;;0.40;;
26920;SDS011;14483;47.844;9.660;2023-01-15T01:52:22;0.95;;;0.30;;
26920;SDS011;14483;47.844;9.660;2023-01-15T01:54:50;1.42;;;0.60;;
26920;SDS011;14483;47.844;9.660;2023-01-15T01:57:17;1.65;;;0.35;;
26920;SDS011;14483;47.844;9.660;2023-01-15T01:59:44;2.30;;;0.45;;
26920;SDS011;14483;47.844;9.660;2023-01-15T02:02:12;1.17;;;0.40;;
26920;SDS011;14483;47.844;9.660;2023-01-15T02:04:39;0.77;;;0.40;;
26920;SDS011;14483;47.844;9.660;2023-01-15T02:07:05;0.80;;;0.35;;
26920;SDS011;14483;47.844;9.660;2023-01-15T02:09:32;0.50;;;0.28;;
26920;SDS011;14483;47.844;9.660;2023-01-15T02:12:00;1.10;;;0.40;;
26920;SDS011;14483;47.844;9.660;2023-01-15T02:14:29;0.82;;;0.38;;
26920;SDS011;14483;47.844;9.660;2023-01-15T02:16:57;0.52;;;0.35;;
26920;SDS011;14483;47.844;9.660;2023-01-15T02:19:31;1.15;;;0.47;;
26920;SDS011;14483;47.844;9.660;2023-01-15T02:22:03;0.88;;;0.20;;
26920;SDS011;14483;47.844;9.660;2023-01-15T02:24:36;0.47;;;0.30;;
26920;SDS011;14483;47.844;9.660;2023-01-15T02:27:09;0.70;;;0.30;;
26920;SDS011;14483;47.844;9.660;2023-01-15T02:29:38;0.70;;;0.30;;
26920;SDS011;14483;47.844;9.660;2023-01-15T02:32:07;1.55;;;0.20;;
26920;SDS011;14483;47.844;9.660;2023-01-15T02:34:35;1.00;;;0.35;;
26920;SDS011;14483;47.844;9.660;2023-01-15T02:37:04;0.50;;;0.20;;
26920;SDS011;14483;47.844;9.660;2023-01-15T02:39:31;1.20;;;0.28;;
26920;SDS011;14483;47.844;9.660;2023-01-15T02:42:03;0.30;;;0.20;;
26920;SDS011;14483;47.844;9.660;2023-01-15T02:44:31;2.13;;;0.30;;
26920;SDS011;14483;47.844;9.660;2023-01-15T02:46:59;0.73;;;0.20;;
26920;SDS011;14483;47.844;9.660;2023-01-15T02:49:26;0.70;;;0.35;;
26920;SDS011;14483;47.844;9.660;2023-01-15T02:51:53;0.45;;;0.20;;
26920;SDS011;14483;47.844;9.660;2023-01-15T02:54:22;0.30;;;0.20;;
26920;SDS011;14483;47.844;9.660;2023-01-15T02:56:49;1.13;;;0.30;;
26920;SDS011;14483;47.844;9.660;2023-01-15T02:59:17;0.63;;;0.25;;
26920;SDS011;14483;47.844;9.660;2023-01-15T03:01:47;0.50;;;0.30;;
26920;SDS011;14483;47.844;9.660;2023-01-15T03:04:16;0.88;;;0.17;;
26920;SDS011;14483;47.844;9.660;2023-01-15T03:06:45;0.50;;;0.20;;
26920;SDS011;14483;47.844;9.660;2023-01-15T03:09:14;3.42;;;0.40;;
26920;SDS011;14483;47.844;9.660;2023-01-15T03:11:43;0.68;;;0.30;;
26920;SDS011;14483;47.844;9.660;2023-01-15T03:14:13;0.60;;;0.22;;
26920;SDS011;14483;47.844;9.660;2023-01-15T03:16:42;1.38;;;0.30;;
26920;SDS011;14483;47.844;9.660;2023-01-15T03:19:13;0.68;;;0.20;;
26920;SDS011;14483;47.844;9.660;2023-01-15T03:21:43;0.38;;;0.20;;
26920;SDS011;14483;47.844;9.660;2023-01-15T03:24:12;1.10;;;0.35;;
26920;SDS011;14483;47.844;9.660;2023-01-15T03:26:39;0.45;;;0.20;;
26920;SDS011;14483;47.844;9.660;2023-01-15T03:29:06;0.40;;;0.20;;
26920;SDS011;14483;47.844;9.660;2023-01-15T03:31:33;0.28;;;0.20;;
26920;SDS011;14483;47.844;9.660;2023-01-15T03:34:00;1.65;;;0.40;;
26920;SDS011;14483;47.844;9.660;2023-01-15T03:36:28;0.80;;;0.20;;
26920;SDS011;14483;47.844;9.660;2023-01-15T03:38:55;0.43;;;0.20;;
26920;SDS011;14483;47.844;9.660;2023-01-15T03:41:23;1.23;;;0.35;;
26920;SDS011;14483;47.844;9.660;2023-01-15T03:43:54;1.17;;;0.20;;
26920;SDS011;14483;47.844;9.660;2023-01-15T03:46:37;0.25;;;0.20;;
26920;SDS011;14483;47.844;9.660;2023-01-15T03:49:06;0.82;;;0.30;;
26920;SDS011;14483;47.844;9.660;2023-01-15T03:51:37;1.10;;;0.30;;
26920;SDS011;14483;47.844;9.660;2023-01-15T03:54:06;0.45;;;0.20;;
26920;SDS011;14483;47.844;9.660;2023-01-15T03:56:37;1.23;;;0.20;;
26920;SDS011;14483;47.844;9.660;2023-01-15T03:59:06;0.93;;;0.30;;
26920;SDS011;14483;47.844;9.660;2023-01-15T04:01:35;0.28;;;0.10;;
26920;SDS011;14483;47.844;9.660;2023-01-15T04:04:02;1.60;;;0.25;;
26920;SDS011;14483;47.844;9.660;2023-01-15T04:06:30;0.52;;;0.30;;
26920;SDS011;14483;47.844;9.660;2023-01-15T04:08:58;2.70;;;0.30;;
26920;SDS011;14483;47.844;9.660;2023-01-15T04:11:25;0.60;;;0.20;;
26920;SDS011;14483;47.844;9.660;2023-01-15T04:13:52;0.73;;;0.20;;
26920;SDS011;14483;47.844;9.660;2023-01-15T04:16:20;0.70;;;0.20;;
26920;SDS011;14483;47.844;9.660;2023-01-15T04:18:49;0.63;;;0.22;;
26920;SDS011;14483;47.844;9.660;2023-01-15T04:21:15;4.65;;;0.45;;
26920;SDS011;14483;47.844;9.660;2023-01-15T04:23:41;1.70;;;0.38;;
26920;SDS011;14483;47.844;9.660;2023-01-15T04:26:09;0.80;;;0.22;;
26920;SDS011;14483;47.844;9.660;2023-01-15T04:28:36;0.77;;;0.20;;
26920;SDS011;14483;47.844;9.660;2023-01-15T04:31:02;0.98;;;0.38;;
26920;SDS011;14483;47.844;9.660;2023-01-15T04:33:28;0.47;;;0.30;;
26920;SDS011;14483;47.844;9.660;2023-01-15T04:35:57;2.22;;;0.70;;
26920;SDS011;14483;47.844;9.660;2023-01-15T04:38:24;1.48;;;0.30;;
26920;SDS011;14483;47.844;9.660;2023-01-15T04:40:50;0.73;;;0.40;;
26920;SDS011;14483;47.844;9.660;2023-01-15T04:43:35;1.55;;;0.32;;
26920;SDS011;14483;47.844;9.660;2023-01-15T04:46:19;0.95;;;0.47;;
26920;SDS011;14483;47.844;9.660;2023-01-15T04:48:46;0.82;;;0.28;;
26920;SDS011;14483;47.844;9.660;2023-01-15T04:51:12;1.25;;;0.20;;
26920;SDS011;14483;47.844;9.660;2023-01-15T04:53:38;0.40;;;0.10;;
26920;SDS011;14483;47.844;9.660;2023-01-15T04:56:05;0.90;;;0.10;;
26920;SDS011;14483;47.844;9.660;2023-01-15T04:58:32;0.03;;;0.00;;
26920;SDS011;14483;47.844;9.660;2023-01-15T05:00:59;0.98;;;0.10;;
26920;SDS011;14483;47.844;9.660;2023-01-15T05:03:26;2.10;;;0.20;;
26920;SDS011;14483;47.844;9.660;2023-01-15T05:05:52;1.45;;;0.40;;
26920;SDS011;14483;47.844;9.660;2023-01-15T05:08:19;0.60;;;0.38;;
26920;SDS011;14483;47.844;9.660;2023-01-15T05:10:45;1.02;;;0.30;;
26920;SDS011;14483;47.844;9.660;2023-01-15T05:13:11;0.65;;;0.17;;
26920;SDS011;14483;47.844;9.660;2023-01-15T05:15:38;0.20;;;0.10;;
26920;SDS011;14483;47.844;9.660;2023-01-15T05:18:07;1.38;;;0.15;;
26920;SDS011;14483;47.844;9.660;2023-01-15T05:20:39;0.93;;;0.30;;
26920;SDS011;14483;47.844;9.660;2023-01-15T05:23:05;0.10;;;0.00;;
26920;SDS011;14483;47.844;9.660;2023-01-15T05:25:31;2.17;;;0.20;;
26920;SDS011;14483;47.844;9.660;2023-01-15T05:27:58;0.73;;;0.22;;
26920;SDS011;14483;47.844;9.660;2023-01-15T05:30:24;1.05;;;0.20;;
26920;SDS011;14483;47.844;9.660;2023-01-15T05:32:51;0.88;;;0.20;;
26920;SDS011;14483;47.844;9.660;2023-01-15T05:35:18;0.32;;;0.10;;
26920;SDS011;14483;47.844;9.660;2023-01-15T05:37:45;0.50;;;0.10;;
26920;SDS011;14483;47.844;9.660;2023-01-15T05:40:11;2.00;;;0.28;;
26920;SDS011;14483;47.844;9.660;2023-01-15T05:42:38;1.02;;;0.20;;
26920;SDS011;14483;47.844;9.660;2023-01-15T05:45:04;0.30;;;0.20;;
26920;SDS011;14483;47.844;9.660;2023-01-15T05:47:31;2.30;;;0.30;;
26920;SDS011;14483;47.844;9.660;2023-01-15T05:49:59;0.10;;;0.10;;
26920;SDS011;14483;47.844;9.660;2023-01-15T05:52:27;2.38;;;0.30;;
26920;SDS011;14483;47.844;9.660;2023-01-15T05:54:53;1.00;;;0.30;;
26920;SDS011;14483;47.844;9.660;2023-01-15T05:57:20;0.80;;;0.30;;
26920;SDS011;14483;47.844;9.660;2023-01-15T05:59:46;0.75;;;0.22;;
26920;SDS011;14483;47.844;9.660;2023-01-15T06:02:14;0.90;;;0.15;;
26920;SDS011;14483;47.844;9.660;2023-01-15T06:04:40;0.60;;;0.20;;
26920;SDS011;14483;47.844;9.660;2023-01-15T06:07:07;1.45;;;0.52;;
26920;SDS011;14483;47.844;9.660;2023-01-15T06:09:34;2.97;;;0.30;;
26920;SDS011;14483;47.844;9.660;2023-01-15T06:12:01;1.35;;;0.60;;
26920;SDS011;14483;47.844;9.660;2023-01-15T06:14:27;1.98;;;0.63;;
26920;SDS011;14483;47.844;9.660;2023-01-15T06:16:53;2.72;;;0.60;;
26920;SDS011;14483;47.844;9.660;2023-01-15T06:19:20;1.10;;;0.40;;
26920;SDS011;14483;47.844;9.660;2023-01-15T06:21:46;1.20;;;0.32;;
26920;SDS011;14483;47.844;9.660;2023-01-15T06:24:13;1.85;;;0.30;;
26920;SDS011;14483;47.844;9.660;2023-01-15T06:26:42;0.88;;;0.30;;
26920;SDS011;14483;47.844;9.660;2023-01-15T06:29:08;1.38;;;0.40;;
26920;SDS011;14483;47.844;9.660;2023-01-15T06:31:34;0.52;;;0.20;;
26920;SDS011;14483;47.844;9.660;2023-01-15T06:34:01;0.50;;;0.20;;
26920;SDS011;14483;47.844;9.660;2023-01-15T06:36:27;0.90;;;0.30;;
26920;SDS011;14483;47.844;9.660;2023-01-15T06:38:54;1.67;;;0.60;;
26920;SDS011;14483;47.844;9.660;2023-01-15T06:41:22;1.85;;;0.65;;
26920;SDS011;14483;47.844;9.660;2023-01-15T06:44:10;0.70;;;0.40;;
26920;SDS011;14483;47.844;9.660;2023-01-15T06:46:54;0.70;;;0.30;;
26920;SDS011;14483;47.844;9.660;2023-01-15T06:49:38;1.00;;;0.45;;
26920;SDS011;14483;47.844;9.660;2023-01-15T06:52:04;1.13;;;0.40;;
26920;SDS011;14483;47.844;9.660;2023-01-15T06:54:31;2.30;;;0.40;;
26920;SDS011;14483;47.844;9.660;2023-01-15T06:56:57;2.67;;;0.40;;
26920;SDS011;14483;47.844;9.660;2023-01-15T06:59:25;1.02;;;0.40;;
26920;SDS011;14483;47.844;9.660;2023-01-15T07:01:51;0.95;;;0.30;;
26920;SDS011;14483;47.844;9.660;2023-01-15T07:04:18;1.00;;;0.40;;
26920;SDS011;14483;47.844;9.660;2023-01-15T07:06:44;0.40;;;0.20;;
26920;SDS011;14483;47.844;9.660;2023-01-15T07:09:10;1.35;;;0.47;;
26920;SDS011;14483;47.844;9.660;2023-01-15T07:11:37;1.13;;;0.45;;
26920;SDS011;14483;47.844;9.660;2023-01-15T07:14:13;1.15;;;0.30;;
26920;SDS011;14483;47.844;9.660;2023-01-15T07:16:41;0.90;;;0.40;;
26920;SDS011;14483;47.844;9.660;2023-01-15T07:19:07;1.55;;;0.30;;
26920;SDS011;14483;47.844;9.660;2023-01-15T07:21:34;1.20;;;0.35;;
26920;SDS011;14483;47.844;9.660;2023-01-15T07:24:00;0.90;;;0.50;;
26920;SDS011;14483;47.844;9.660;2023-01-15T07:26:26;5.05;;;0.47;;
26920;SDS011;14483;47.844;9.660;2023-01-15T07:28:53;2.10;;;0.40;;
26920;SDS011;14483;47.844;9.660;2023-01-15T07:31:19;1.02;;;0.30;;
26920;SDS011;14483;47.844;9.660;2023-01-15T07:33:47;3.45;;;1.05;;
26920;SDS011;14483;47.844;9.660;2023-01-15T07:36:14;4.68;;;0.70;;
26920;SDS011;14483;47.844;9.660;2023-01-15T07:38:40;1.00;;;0.50;;
26920;SDS011;14483;47.844;9.660;2023-01-15T07:41:06;2.92;;;1.00;;
26920;SDS011;14483;47.844;9.660;2023-01-15T07:43:50;1.33;;;0.60;;
26920;SDS011;14483;47.844;9.660;2023-01-15T07:46:34;3.80;;;0.70;;
26920;SDS011;14483;47.844;9.660;2023-01-15T07:49:19;2.55;;;0.63;;
26920;SDS011;14483;47.844;9.660;2023-01-15T07:52:03;1.20;;;0.52;;
26920;SDS011;14483;47.844;9.660;2023-01-15T07:54:30;0.80;;;0.40;;
26920;SDS011;14483;47.844;9.660;2023-01-15T07:56:56;4.93;;;1.30;;
26920;SDS011;14483;47.844;9.660;2023-01-15T07:59:22;3.20;;;0.98;;
26920;SDS011;14483;47.844;9.660;2023-01-15T08:01:50;3.55;;;1.45;;
26920;SDS011;14483;47.844;9.660;2023-01-15T08:04:16;4.30;;;1.77;;
26920;SDS011;14483;47.844;9.660;2023-01-15T08:06:44;4.47;;;1.50;;
26920;SDS011;14483;47.844;9.660;2023-01-15T08:09:10;6.47;;;1.48;;
26920;SDS011;14483;47.844;9.660;2023-01-15T08:11:37;3.80;;;1.30;;
26920;SDS011;14483;47.844;9.660;2023-01-15T08:14:20;3.30;;;1.65;;
26920;SDS011;14483;47.844;9.660;2023-01-15T08:17:04;1.77;;;0.90;;
26920;SDS011;14483;47.844;9.660;2023-01-15T08:19:31;2.78;;;1.17;;
26920;SDS011;14483;47.844;9.660;2023-01-15T08:21:58;2.72;;;1.63;;
26920;SDS011;14483;47.844;9.660;2023-01-15T08:24:25;2.53;;;1.50;;
26920;SDS011;14483;47.844;9.660;2023-01-15T08:26:52;3.63;;;1.40;;
26920;SDS011;14483;47.844;9.660;2023-01-15T08:29:19;3.28;;;1.40;;
26920;SDS011;14483;47.844;9.660;2023-01-15T08:31:46;35.25;;;16.75;;
26920;SDS011;14483;47.844;9.660;2023-01-15T08:34:13;30.92;;;14.93;;
26920;SDS011;14483;47.844;9.660;2023-01-15T08:36:39;4.88;;;2.25;;
26920;SDS011;14483;47.844;9.660;2023-01-15T08:39:07;2.85;;;0.90;;
26920;SDS011;14483;47.844;9.660;2023-01-15T08:41:33;2.13;;;0.77;;
26920;SDS011;14483;47.844;9.660;2023-01-15T08:44:00;1.48;;;0.70;;
26920;SDS011;14483;47.844;9.660;2023-01-15T08:46:26;2.00;;;0.90;;
26920;SDS011;14483;47.844;9.660;2023-01-15T08:48:53;2.75;;;0.80;;
26920;SDS011;14483;47.844;9.660;2023-01-15T08:51:19;1.17;;;0.60;;
26920;SDS011;14483;47.844;9.660;2023-01-15T08:53:45;4.20;;;0.90;;
26920;SDS011;14483;47.844;9.660;2023-01-15T08:56:13;2.55;;;1.00;;
26920;SDS011;14483;47.844;9.660;2023-01-15T08:58:40;3.58;;;0.90;;
26920;SDS011;14483;47.844;9.660;2023-01-15T09:01:07;1.00;;;0.30;;
26920;SDS011;14483;47.844;9.660;2023-01-15T09:03:34;0.47;;;0.20;;
26920;SDS011;14483;47.844;9.660;2023-01-15T09:06:01;0.40;;;0.20;;
26920;SDS011;14483;47.844;9.660;2023-01-15T09:08:27;1.63;;;0.43;;
26920;SDS011;14483;47.844;9.660;2023-01-15T09:10:55;0.52;;;0.20;;
26920;SDS011;14483;47.844;9.660;2023-01-15T09:13:23;1.55;;;0.20;;
26920;SDS011;14483;47.844;9.660;2023-01-15T09:15:49;0.30;;;0.10;;
26920;SDS011;14483;47.844;9.660;2023-01-15T09:18:16;0.20;;;0.20;;
26920;SDS011;14483;47.844;9.660;2023-01-15T09:20:44;0.25;;;0.10;;
26920;SDS011;14483;47.844;9.660;2023-01-15T09:23:10;1.77;;;0.10;;
26920;SDS011;14483;47.844;9.660;2023-01-15T09:25:37;0.32;;;0.10;;
26920;SDS011;14483;47.844;9.660;2023-01-15T09:28:03;0.55;;;0.20;;
26920;SDS011;14483;47.844;9.660;2023-01-15T09:30:31;0.60;;;0.10;;
26920;SDS011;14483;47.844;9.660;2023-01-15T09:32:57;0.40;;;0.20;;
26920;SDS011;14483;47.844;9.660;2023-01-15T09:35:24;0.68;;;0.10;;
26920;SDS011;14483;47.844;9.660;2023-01-15T09:37:50;0.28;;;0.10;;
26920;SDS011;14483;47.844;9.660;2023-01-15T09:40:20;0.80;;;0.47;;
26920;SDS011;14483;47.844;9.660;2023-01-15T09:42:51;0.43;;;0.10;;
26920;SDS011;14483;47.844;9.660;2023-01-15T09:45:21;0.20;;;0.00;;
26920;SDS011;14483;47.844;9.660;2023-01-15T09:47:57;0.63;;;0.05;;
26920;SDS011;14483;47.844;9.660;2023-01-15T09:50:28;0.90;;;0.05;;
26920;SDS011;14483;47.844;9.660;2023-01-15T09:55:45;0.00;;;0.00;;
26920;SDS011;14483;47.844;9.660;2023-01-15T09:58:12;0.93;;;0.25;;
26920;SDS011;14483;47.844;9.660;2023-01-15T10:00:40;0.20;;;0.00;;
26920;SDS011;14483;47.844;9.660;2023-01-15T10:03:13;0.00;;;0.00;;
26920;SDS011;14483;47.844;9.660;2023-01-15T10:05:42;0.10;;;0.00;;
26920;SDS011;14483;47.844;9.660;2023-01-15T10:08:12;0.00;;;0.00;;
26920;SDS011;14483;47.844;9.660;2023-01-15T10:10:40;0.20;;;0.08;;
26920;SDS011;14483;47.844;9.660;2023-01-15T10:13:10;0.32;;;0.00;;
26920;SDS011;14483;47.844;9.660;2023-01-15T10:15:40;0.30;;;0.00;;
26920;SDS011;14483;47.844;9.660;2023-01-15T10:18:10;0.10;;;0.00;;
26920;SDS011;14483;47.844;9.660;2023-01-15T10:20:43;0.00;;;0.00;;
26920;SDS011;14483;47.844;9.660;2023-01-15T10:23:16;0.20;;;0.00;;
26920;SDS011;14483;47.844;9.660;2023-01-15T10:25:46;2.42;;;0.08;;
26920;SDS011;14483;47.844;9.660;2023-01-15T10:28:18;0.00;;;0.00;;
26920;SDS011;14483;47.844;9.660;2023-01-15T10:30:45;0.03;;;0.00;;
26920;SDS011;14483;47.844;9.660;2023-01-15T10:33:17;0.20;;;0.00;;
26920;SDS011;14483;47.844;9.660;2023-01-15T10:35:50;0.10;;;0.00;;
26920;SDS011;14483;47.844;9.660;2023-01-15T10:38:20;0.30;;;0.03;;
26920;SDS011;14483;47.844;9.660;2023-01-15T10:40:55;0.05;;;0.00;;
26920;SDS011;14483;47.844;9.660;2023-01-15T10:43:27;0.15;;;0.00;;
26920;SDS011;14483;47.844;9.660;2023-01-15T10:45:57;0.10;;;0.00;;
26920;SDS011;14483;47.844;9.660;2023-01-15T10:48:27;0.45;;;0.20;;
26920;SDS011;14483;47.844;9.660;2023-01-15T10:50:56;0.05;;;0.00;;
26920;SDS011;14483;47.844;9.660;2023-01-15T10:53:27;0.25;;;0.10;;
26920;SDS011;14483;47.844;9.660;2023-01-15T10:55:56;0.00;;;0.00;;
26920;SDS011;14483;47.844;9.660;2023-01-15T10:58:26;0.20;;;0.10;;
26920;SDS011;14483;47.844;9.660;2023-01-15T11:00:55;0.03;;;0.00;;
26920;SDS011;14483;47.844;9.660;2023-01-15T11:03:25;0.50;;;0.00;;
26920;SDS011;14483;47.844;9.660;2023-01-15T11:05:55;0.03;;;0.00;;
26920;SDS011;14483;47.844;9.660;2023-01-15T11:08:22;0.00;;;0.00;;
26920;SDS011;14483;47.844;9.660;2023-01-15T11:10:52;0.13;;;0.00;;
26920;SDS011;14483;47.844;9.660;2023-01-15T11:13:19;0.10;;;0.00;;
26920;SDS011;14483;47.844;9.660;2023-01-15T11:16:04;0.00;;;0.00;;
26920;SDS011;14483;47.844;9.660;2023-01-15T11:18:48;0.63;;;0.20;;
26920;SDS011;14483;47.844;9.660;2023-01-15T11:21:33;0.30;;;0.05;;
26920;SDS011;14483;47.844;9.660;2023-01-15T11:24:11;0.10;;;0.10;;
26920;SDS011;14483;47.844;9.660;2023-01-15T11:26:39;0.10;;;0.00;;
26920;SDS011;14483;47.844;9.660;2023-01-15T11:29:11;0.10;;;0.05;;
26920;SDS011;14483;47.844;9.660;2023-01-15T11:31:38;0.80;;;0.30;;
26920;SDS011;14483;47.844;9.660;2023-01-15T11:34:06;0.40;;;0.10;;
26920;SDS011;14483;47.844;9.660;2023-01-15T11:36:35;1.00;;;0.10;;
26920;SDS011;14483;47.844;9.660;2023-01-15T11:39:01;1.33;;;0.50;;
26920;SDS011;14483;47.844;9.660;2023-01-15T11:41:28;0.52;;;0.22;;
26920;SDS011;14483;47.844;9.660;2023-01-15T11:44:16;1.05;;;0.50;;
26920;SDS011;14483;47.844;9.660;2023-01-15T11:47:00;0.75;;;0.30;;
26920;SDS011;14483;47.844;9.660;2023-01-15T11:49:48;0.80;;;0.17;;
26920;SDS011;14483;47.844;9.660;2023-01-15T11:52:35;0.85;;;0.20;;
26920;SDS011;14483;47.844;9.660;2023-01-15T11:55:02;1.48;;;0.40;;
26920;SDS011;14483;47.844;9.660;2023-01-15T11:57:29;0.77;;;0.20;;
26920;SDS011;14483;47.844;9.660;2023-01-15T11:59:56;0.88;;;0.20;;
26920;SDS011;14483;47.844;9.660;2023-01-15T12:02:25;1.10;;;0.10;;
26920;SDS011;14483;47.844;9.660;2023-01-15T12:04:56;0.35;;;0.10;;
26920;SDS011;14483;47.844;9.660;2023-01-15T12:07:24;1.00;;;0.10;;
26920;SDS011;14483;47.844;9.660;2023-01-15T12:10:03;0.17;;;0.00;;
26920;SDS011;14483;47.844;9.660;2023-01-15T12:12:34;0.08;;;0.00;;
26920;SDS011;14483;47.844;9.660;2023-01-15T12:15:07;0.00;;;0.00;;
26920;SDS011;14483;47.844;9.660;2023-01-15T12:17:41;0.00;;;0.00;;
26920;SDS011;14483;47.844;9.660;2023-01-15T12:20:14;2.33;;;1.90;;
26920;SDS011;14483;47.844;9.660;2023-01-15T12:22:47;0.00;;;0.00;;
26920;SDS011;14483;47.844;9.660;2023-01-15T12:25:21;0.00;;;0.00;;
26920;SDS011;14483;47.844;9.660;2023-01-15T12:27:56;0.00;;;0.00;;
26920;SDS011;14483;47.844;9.660;2023-01-15T12:30:26;0.00;;;0.00;;
26920;SDS011;14483;47.844;9.660;2023-01-15T12:32:55;0.00;;;0.00;;
26920;SDS011;14483;47.844;9.660;2023-01-15T12:35:25;0.00;;;0.00;;
26920;SDS011;14483;47.844;9.660;2023-01-15T12:37:53;0.00;;;0.00;;
26920;SDS011;14483;47.844;9.660;2023-01-15T12:40:23;0.00;;;0.00;;
26920;SDS011;14483;47.844;9.660;2023-01-15T12:42:51;0.00;;;0.00;;
26920;SDS011;14483;47.844;9.660;2023-01-15T12:45:36;0.00;;;0.00;;
26920;SDS011;14483;47.844;9.660;2023-01-15T12:48:04;0.00;;;0.00;;
26920;SDS011;14483;47.844;9.660;2023-01-15T12:50:35;0.00;;;0.00;;
26920;SDS011;14483;47.844;9.660;2023-01-15T12:53:09;0.00;;;0.00;;
26920;SDS011;14483;47.844;9.660;2023-01-15T12:55:39;2.40;;;0.30;;
26920;SDS011;14483;47.844;9.660;2023-01-15T12:58:09;0.00;;;0.00;;
26920;SDS011;14483;47.844;9.660;2023-01-15T13:00:40;0.00;;;0.00;;
26920;SDS011;14483;47.844;9.660;2023-01-15T13:03:09;0.00;;;0.00;;
26920;SDS011;14483;47.844;9.660;2023-01-15T13:05:40;0.00;;;0.00;;
26920;SDS011;14483;47.844;9.660;2023-01-15T13:08:12;0.00;;;0.00;;
26920;SDS011;14483;47.844;9.660;2023-01-15T13:10:42;0.00;;;0.00;;
26920;SDS011;14483;47.844;9.660;2023-01-15T13:13:12;0.00;;;0.00;;
26920;SDS011;14483;47.844;9.660;2023-01-15T13:15:40;0.00;;;0.00;;
26920;SDS011;14483;47.844;9.660;2023-01-15T13:18:09;0.00;;;0.00;;
26920;SDS011;14483;47.844;9.660;2023-01-15T13:20:41;0.00;;;0.00;;
26920;SDS011;14483;47.844;9.660;2023-01-15T13:23:14;0.00;;;0.00;;
26920;SDS011;14483;47.844;9.660;2023-01-15T13:25:48;0.00;;;0.00;;
26920;SDS011;14483;47.844;9.660;2023-01-15T13:28:21;0.00;;;0.00;;
26920;SDS011;14483;47.844;9.660;2023-01-15T13:30:55;0.00;;;0.00;;
26920;SDS011;14483;47.844;9.660;2023-01-15T13:33:26;0.00;;;0.00;;
26920;SDS011;14483;47.844;9.660;2023-01-15T13:35:55;0.00;;;0.00;;
26920;SDS011;14483;47.844;9.660;2023-01-15T13:38:23;0.00;;;0.00;;
26920;SDS011;14483;47.844;9.660;2023-01-15T13:40:53;0.00;;;0.00;;
26920;SDS011;14483;47.844;9.660;2023-01-15T13:43:26;0.00;;;0.00;;
26920;SDS011;14483;47.844;9.660;2023-01-15T13:45:55;0.00;;;0.00;;
26920;SDS011;14483;47.844;9.660;2023-01-15T13:48:24;0.20;;;0.20;;
26920;SDS011;14483;47.844;9.660;2023-01-15T13:50:52;0.00;;;0.00;;
26920;SDS011;14483;47.844;9.660;2023-01-15T13:53:22;0.00;;;0.00;;
26920;SDS011;14483;47.844;9.660;2023-01-15T13:55:53;0.00;;;0.00;;
26920;SDS011;14483;47.844;9.660;2023-01-15T13:58:22;0.00;;;0.00;;
26920;SDS011;14483;47.844;9.660;2023-01-15T14:00:58;0.00;;;0.00;;
26920;SDS011;14483;47.844;9.660;2023-01-15T14:03:26;0.00;;;0.00;;
26920;SDS011;14483;47.844;9.660;2023-01-15T14:05:53;0.00;;;0.00;;
26920;SDS011;14483;47.844;9.660;2023-01-15T14:08:22;0.00;;;0.00;;
26920;SDS011;14483;47.844;9.660;2023-01-15T14:10:50;0.00;;;0.00;;
26920;SDS011;14483;47.844;9.660;2023-01-15T14:13:27;0.00;;;0.00;;
26920;SDS011;14483;47.844;9.660;2023-01-15T14:16:02;0.00;;;0.00;;
26920;SDS011;14483;47.844;9.660;2023-01-15T14:18:35;0.00;;;0.00;;
26920;SDS011;14483;47.844;9.660;2023-01-15T14:23:56;0.00;;;0.00;;
26920;SDS011;14483;47.844;9.660;2023-01-15T14:26:29;0.00;;;0.00;;
26920;SDS011;14483;47.844;9.660;2023-01-15T14:29:03;0.00;;;0.00;;
26920;SDS011;14483;47.844;9.660;2023-01-15T14:31:35;0.00;;;0.00;;
26920;SDS011;14483;47.844;9.660;2023-01-15T14:34:07;0.00;;;0.00;;
26920;SDS011;14483;47.844;9.660;2023-01-15T14:36:37;0.00;;;0.00;;
26920;SDS011;14483;47.844;9.660;2023-01-15T14:39:04;0.00;;;0.00;;
26920;SDS011;14483;47.844;9.660;2023-01-15T14:41:32;0.00;;;0.00;;
26920;SDS011;14483;47.844;9.660;2023-01-15T14:44:26;0.00;;;0.00;;
26920;SDS011;14483;47.844;9.660;2023-01-15T14:46:56;0.00;;;0.00;;
26920;SDS011;14483;47.844;9.660;2023-01-15T14:49:27;0.00;;;0.00;;
26920;SDS011;14483;47.844;9.660;2023-01-15T14:51:53;0.00;;;0.00;;
26920;SDS011;14483;47.844;9.660;2023-01-15T14:54:20;0.00;;;0.00;;
26920;SDS011;14483;47.844;9.660;2023-01-15T14:56:49;0.00;;;0.00;;
26920;SDS011;14483;47.844;9.660;2023-01-15T14:59:18;0.00;;;0.00;;
26920;SDS011;14483;47.844;9.660;2023-01-15T15:01:50;0.00;;;0.00;;
26920;SDS011;14483;47.844;9.660;2023-01-15T15:04:21;0.00;;;0.00;;
26920;SDS011;14483;47.844;9.660;2023-01-15T15:06:50;0.00;;;0.00;;